sensor_id;sensor_type;location;lat;lon;timestamp;P1;durP1;ratioP1;P2;durP2;ratioP2
10497;SDS011;5296;51.060;13.750;2023-06-22T00:02:36;8.35;;;7.55;;
10497;SDS011;5296;51.060;13.750;2023-06-22T00:07:38;8.75;;;7.95;;
10497;SDS011;5296;51.060;13.750;2023-06-22T00:12:40;8.77;;;7.90;;
10497;SDS011;5296;51.060;13.750;2023-06-22T00:17:41;8.57;;;7.68;;
10497;SDS011;5296;51.060;13.750;2023-06-22T00:22:46;8.80;;;7.40;;
10497;SDS011;5296;51.060;13.750;2023-06-22T00:27:49;8.50;;;7.80;;
10497;SDS011;5296;51.060;13.750;2023-06-22T00:32:51;9.07;;;8.18;;
10497;SDS011;5296;51.060;13.750;2023-06-22T00:37:53;8.13;;;7.43;;
10497;SDS011;5296;51.060;13.750;2023-06-22T00:43:01;8.38;;;7.70;;
10497;SDS011;5296;51.060;13.750;2023-06-22T00:48:03;9.23;;;7.90;;
10497;SDS011;5296;51.060;13.750;2023-06-22T00:53:08;9.10;;;7.85;;
10497;SDS011;5296;51.060;13.750;2023-06-22T00:58:12;8.65;;;6.95;;
10497;SDS011;5296;51.060;13.750;2023-06-22T01:03:15;8.20;;;7.40;;
10497;SDS011;5296;51.060;13.750;2023-06-22T01:18:32;8.02;;;7.38;;
10497;SDS011;5296;51.060;13.750;2023-06-22T01:23:51;9.13;;;8.23;;
10497;SDS011;5296;51.060;13.750;2023-06-22T01:29:00;9.20;;;7.55;;
10497;SDS011;5296;51.060;13.750;2023-06-22T01:34:03;8.32;;;7.60;;
10497;SDS011;5296;51.060;13.750;2023-06-22T01:39:06;8.10;;;7.30;;
10497;SDS011;5296;51.060;13.750;2023-06-22T01:44:08;8.18;;;7.50;;
10497;SDS011;5296;51.060;13.750;2023-06-22T01:49:10;8.40;;;7.70;;
10497;SDS011;5296;51.060;13.750;2023-06-22T01:54:12;8.30;;;7.60;;
10497;SDS011;5296;51.060;13.750;2023-06-22T01:59:17;7.47;;;6.78;;
10497;SDS011;5296;51.060;13.750;2023-06-22T02:09:46;8.57;;;7.75;;
10497;SDS011;5296;51.060;13.750;2023-06-22T02:14:50;8.15;;;7.28;;
10497;SDS011;5296;51.060;13.750;2023-06-22T02:19:53;8.48;;;7.68;;
10497;SDS011;5296;51.060;13.750;2023-06-22T02:24:55;9.15;;;8.35;;
10497;SDS011;5296;51.060;13.750;2023-06-22T02:29:59;8.52;;;7.72;;
10497;SDS011;5296;51.060;13.750;2023-06-22T02:35:01;8.27;;;7.57;;
10497;SDS011;5296;51.060;13.750;2023-06-22T02:40:06;8.68;;;7.88;;
10497;SDS011;5296;51.060;13.750;2023-06-22T02:45:10;8.90;;;8.18;;
10497;SDS011;5296;51.060;13.750;2023-06-22T02:50:12;8.70;;;7.90;;
10497;SDS011;5296;51.060;13.750;2023-06-22T02:55:13;9.10;;;8.25;;
10497;SDS011;5296;51.060;13.750;2023-06-22T03:00:19;8.23;;;7.53;;
10497;SDS011;5296;51.060;13.750;2023-06-22T03:05:23;9.45;;;8.55;;
10497;SDS011;5296;51.060;13.750;2023-06-22T03:10:25;8.73;;;7.93;;
10497;SDS011;5296;51.060;13.750;2023-06-22T03:15:27;9.38;;;8.48;;
10497;SDS011;5296;51.060;13.750;2023-06-22T03:20:31;8.43;;;7.63;;
10497;SDS011;5296;51.060;13.750;2023-06-22T03:25:35;8.80;;;8.00;;
10497;SDS011;5296;51.060;13.750;2023-06-22T03:30:37;8.77;;;7.85;;
10497;SDS011;5296;51.060;13.750;2023-06-22T03:35:38;8.52;;;7.68;;
10497;SDS011;5296;51.060;13.750;2023-06-22T03:40:40;9.55;;;8.00;;
10497;SDS011;5296;51.060;13.750;2023-06-22T03:45:42;9.68;;;8.75;;
10497;SDS011;5296;51.060;13.750;2023-06-22T03:50:47;8.43;;;7.68;;
10497;SDS011;5296;51.060;13.750;2023-06-22T03:55:49;9.15;;;8.25;;
10497;SDS011;5296;51.060;13.750;2023-06-22T04:00:52;8.63;;;7.82;;
10497;SDS011;5296;51.060;13.750;2023-06-22T04:05:54;9.32;;;8.27;;
10497;SDS011;5296;51.060;13.750;2023-06-22T04:10:56;9.02;;;8.13;;
10497;SDS011;5296;51.060;13.750;2023-06-22T04:15:58;9.02;;;8.23;;
10497;SDS011;5296;51.060;13.750;2023-06-22T04:21:00;9.05;;;8.25;;
10497;SDS011;5296;51.060;13.750;2023-06-22T04:26:01;9.32;;;7.88;;
10497;SDS011;5296;51.060;13.750;2023-06-22T04:31:03;8.70;;;7.80;;
10497;SDS011;5296;51.060;13.750;2023-06-22T04:36:05;9.30;;;8.38;;
10497;SDS011;5296;51.060;13.750;2023-06-22T04:41:07;9.10;;;8.30;;
10497;SDS011;5296;51.060;13.750;2023-06-22T04:46:10;8.73;;;7.95;;
10497;SDS011;5296;51.060;13.750;2023-06-22T04:51:12;9.88;;;8.82;;
10497;SDS011;5296;51.060;13.750;2023-06-22T04:56:14;8.93;;;8.02;;
10497;SDS011;5296;51.060;13.750;2023-06-22T05:01:17;9.48;;;8.57;;
10497;SDS011;5296;51.060;13.750;2023-06-22T05:06:21;9.63;;;8.68;;
10497;SDS011;5296;51.060;13.750;2023-06-22T05:11:28;8.68;;;7.88;;
10497;SDS011;5296;51.060;13.750;2023-06-22T05:16:30;9.05;;;8.23;;
10497;SDS011;5296;51.060;13.750;2023-06-22T05:21:32;9.02;;;8.13;;
10497;SDS011;5296;51.060;13.750;2023-06-22T05:26:34;9.13;;;8.15;;
10497;SDS011;5296;51.060;13.750;2023-06-22T05:31:36;8.93;;;8.05;;
10497;SDS011;5296;51.060;13.750;2023-06-22T05:36:37;9.05;;;8.13;;
10497;SDS011;5296;51.060;13.750;2023-06-22T05:41:39;10.13;;;8.40;;
10497;SDS011;5296;51.060;13.750;2023-06-22T05:46:42;9.32;;;8.40;;
10497;SDS011;5296;51.060;13.750;2023-06-22T05:51:45;10.35;;;9.32;;
10497;SDS011;5296;51.060;13.750;2023-06-22T05:56:47;9.50;;;8.48;;
10497;SDS011;5296;51.060;13.750;2023-06-22T06:01:49;10.30;;;8.70;;
10497;SDS011;5296;51.060;13.750;2023-06-22T06:06:51;10.18;;;9.07;;
10497;SDS011;5296;51.060;13.750;2023-06-22T06:11:53;8.65;;;7.85;;
10497;SDS011;5296;51.060;13.750;2023-06-22T06:16:55;10.40;;;8.15;;
10497;SDS011;5296;51.060;13.750;2023-06-22T06:21:56;12.80;;;7.60;;
10497;SDS011;5296;51.060;13.750;2023-06-22T06:26:58;8.43;;;7.63;;
10497;SDS011;5296;51.060;13.750;2023-06-22T06:32:00;9.90;;;7.97;;
10497;SDS011;5296;51.060;13.750;2023-06-22T06:37:02;9.55;;;8.55;;
10497;SDS011;5296;51.060;13.750;2023-06-22T06:42:04;8.45;;;7.68;;
10497;SDS011;5296;51.060;13.750;2023-06-22T06:47:06;9.20;;;8.20;;
10497;SDS011;5296;51.060;13.750;2023-06-22T06:52:08;9.57;;;7.85;;
10497;SDS011;5296;51.060;13.750;2023-06-22T06:57:09;8.63;;;7.82;;
10497;SDS011;5296;51.060;13.750;2023-06-22T07:02:12;8.98;;;7.95;;
10497;SDS011;5296;51.060;13.750;2023-06-22T07:07:14;9.57;;;7.85;;
10497;SDS011;5296;51.060;13.750;2023-06-22T07:12:15;8.52;;;7.70;;
10497;SDS011;5296;51.060;13.750;2023-06-22T07:17:17;8.50;;;7.70;;
10497;SDS011;5296;51.060;13.750;2023-06-22T07:22:19;9.07;;;8.35;;
10497;SDS011;5296;51.060;13.750;2023-06-22T07:27:20;9.13;;;8.23;;
10497;SDS011;5296;51.060;13.750;2023-06-22T07:32:22;9.02;;;8.23;;
10497;SDS011;5296;51.060;13.750;2023-06-22T07:37:24;9.07;;;8.27;;
10497;SDS011;5296;51.060;13.750;2023-06-22T07:42:26;10.65;;;8.13;;
10497;SDS011;5296;51.060;13.750;2023-06-22T07:47:29;8.60;;;7.85;;
10497;SDS011;5296;51.060;13.750;2023-06-22T07:52:31;8.68;;;7.95;;
10497;SDS011;5296;51.060;13.750;2023-06-22T07:57:33;9.90;;;9.00;;
10497;SDS011;5296;51.060;13.750;2023-06-22T08:02:36;8.60;;;7.70;;
10497;SDS011;5296;51.060;13.750;2023-06-22T08:07:37;10.73;;;7.75;;
10497;SDS011;5296;51.060;13.750;2023-06-22T08:12:40;8.82;;;8.02;;
10497;SDS011;5296;51.060;13.750;2023-06-22T08:17:42;8.75;;;7.88;;
10497;SDS011;5296;51.060;13.750;2023-06-22T08:22:43;8.48;;;7.60;;
10497;SDS011;5296;51.060;13.750;2023-06-22T08:27:45;8.75;;;7.88;;
10497;SDS011;5296;51.060;13.750;2023-06-22T08:32:48;7.60;;;6.90;;
10497;SDS011;5296;51.060;13.750;2023-06-22T08:37:50;7.28;;;6.57;;
10497;SDS011;5296;51.060;13.750;2023-06-22T08:42:56;6.50;;;6.00;;
10497;SDS011;5296;51.060;13.750;2023-06-22T08:47:58;6.65;;;6.05;;
10497;SDS011;5296;51.060;13.750;2023-06-22T08:53:00;6.85;;;6.28;;
10497;SDS011;5296;51.060;13.750;2023-06-22T08:58:02;10.32;;;6.35;;
10497;SDS011;5296;51.060;13.750;2023-06-22T09:03:05;6.63;;;5.93;;
10497;SDS011;5296;51.060;13.750;2023-06-22T09:08:07;6.18;;;5.68;;
10497;SDS011;5296;51.060;13.750;2023-06-22T09:13:08;6.22;;;5.63;;
10497;SDS011;5296;51.060;13.750;2023-06-22T09:18:10;8.30;;;6.35;;
10497;SDS011;5296;51.060;13.750;2023-06-22T09:23:13;7.03;;;6.32;;
10497;SDS011;5296;51.060;13.750;2023-06-22T09:28:14;8.40;;;5.85;;
10497;SDS011;5296;51.060;13.750;2023-06-22T09:33:16;6.32;;;5.78;;
10497;SDS011;5296;51.060;13.750;2023-06-22T09:38:21;7.07;;;6.47;;
10497;SDS011;5296;51.060;13.750;2023-06-22T09:43:22;7.95;;;6.57;;
10497;SDS011;5296;51.060;13.750;2023-06-22T09:48:24;7.70;;;5.97;;
10497;SDS011;5296;51.060;13.750;2023-06-22T09:53:26;6.57;;;6.07;;
10497;SDS011;5296;51.060;13.750;2023-06-22T09:58:27;6.75;;;6.22;;
10497;SDS011;5296;51.060;13.750;2023-06-22T10:03:29;6.75;;;6.25;;
10497;SDS011;5296;51.060;13.750;2023-06-22T10:08:31;7.90;;;6.50;;
10497;SDS011;5296;51.060;13.750;2023-06-22T10:13:33;6.60;;;6.00;;
10497;SDS011;5296;51.060;13.750;2023-06-22T10:18:34;7.70;;;5.80;;
10497;SDS011;5296;51.060;13.750;2023-06-22T10:23:36;6.97;;;6.47;;
10497;SDS011;5296;51.060;13.750;2023-06-22T10:28:38;7.00;;;6.40;;
10497;SDS011;5296;51.060;13.750;2023-06-22T10:33:39;7.88;;;7.07;;
10497;SDS011;5296;51.060;13.750;2023-06-22T10:38:42;9.75;;;7.43;;
10497;SDS011;5296;51.060;13.750;2023-06-22T10:43:44;8.82;;;6.55;;
10497;SDS011;5296;51.060;13.750;2023-06-22T10:48:46;7.45;;;6.85;;
10497;SDS011;5296;51.060;13.750;2023-06-22T10:53:47;7.82;;;7.13;;
10497;SDS011;5296;51.060;13.750;2023-06-22T10:58:49;7.03;;;6.53;;
10497;SDS011;5296;51.060;13.750;2023-06-22T11:03:51;7.70;;;7.07;;
10497;SDS011;5296;51.060;13.750;2023-06-22T11:08:53;7.05;;;6.35;;
10497;SDS011;5296;51.060;13.750;2023-06-22T11:14:12;7.68;;;6.97;;
10497;SDS011;5296;51.060;13.750;2023-06-22T11:19:14;7.50;;;6.78;;
10497;SDS011;5296;51.060;13.750;2023-06-22T11:24:16;7.38;;;6.78;;
10497;SDS011;5296;51.060;13.750;2023-06-22T11:29:18;7.38;;;6.78;;
10497;SDS011;5296;51.060;13.750;2023-06-22T11:34:36;7.32;;;6.72;;
10497;SDS011;5296;51.060;13.750;2023-06-22T11:39:38;7.00;;;6.40;;
10497;SDS011;5296;51.060;13.750;2023-06-22T11:44:53;7.50;;;6.72;;
10497;SDS011;5296;51.060;13.750;2023-06-22T11:49:55;8.40;;;7.45;;
10497;SDS011;5296;51.060;13.750;2023-06-22T11:54:56;7.30;;;6.60;;
10497;SDS011;5296;51.060;13.750;2023-06-22T11:59:58;7.63;;;6.93;;
10497;SDS011;5296;51.060;13.750;2023-06-22T12:04:59;7.47;;;6.85;;
10497;SDS011;5296;51.060;13.750;2023-06-22T12:10:01;7.28;;;6.60;;
10497;SDS011;5296;51.060;13.750;2023-06-22T12:15:03;7.93;;;7.20;;
10497;SDS011;5296;51.060;13.750;2023-06-22T12:20:06;11.32;;;7.40;;
10497;SDS011;5296;51.060;13.750;2023-06-22T12:25:09;8.07;;;7.40;;
10497;SDS011;5296;51.060;13.750;2023-06-22T12:30:10;7.57;;;6.85;;
10497;SDS011;5296;51.060;13.750;2023-06-22T12:35:12;8.05;;;7.03;;
10497;SDS011;5296;51.060;13.750;2023-06-22T12:40:15;7.57;;;6.90;;
10497;SDS011;5296;51.060;13.750;2023-06-22T12:45:17;8.02;;;7.20;;
10497;SDS011;5296;51.060;13.750;2023-06-22T12:50:20;7.90;;;7.10;;
10497;SDS011;5296;51.060;13.750;2023-06-22T12:55:21;7.50;;;6.78;;
10497;SDS011;5296;51.060;13.750;2023-06-22T13:00:23;7.38;;;6.78;;
10497;SDS011;5296;51.060;13.750;2023-06-22T13:05:25;7.18;;;6.53;;
10497;SDS011;5296;51.060;13.750;2023-06-22T13:10:26;8.18;;;7.38;;
10497;SDS011;5296;51.060;13.750;2023-06-22T13:15:29;7.22;;;6.55;;
10497;SDS011;5296;51.060;13.750;2023-06-22T13:20:31;7.15;;;6.50;;
10497;SDS011;5296;51.060;13.750;2023-06-22T13:25:32;7.22;;;6.60;;
10497;SDS011;5296;51.060;13.750;2023-06-22T13:30:34;7.35;;;6.75;;
10497;SDS011;5296;51.060;13.750;2023-06-22T13:35:53;7.93;;;6.85;;
10497;SDS011;5296;51.060;13.750;2023-06-22T13:40:55;7.55;;;6.85;;
10497;SDS011;5296;51.060;13.750;2023-06-22T13:45:58;8.27;;;7.13;;
10497;SDS011;5296;51.060;13.750;2023-06-22T13:51:00;7.82;;;7.05;;
10497;SDS011;5296;51.060;13.750;2023-06-22T13:56:03;7.13;;;6.53;;
10497;SDS011;5296;51.060;13.750;2023-06-22T14:01:05;8.23;;;7.53;;
10497;SDS011;5296;51.060;13.750;2023-06-22T14:06:06;9.65;;;6.93;;
10497;SDS011;5296;51.060;13.750;2023-06-22T14:11:10;7.85;;;7.15;;
10497;SDS011;5296;51.060;13.750;2023-06-22T14:16:12;7.75;;;7.05;;
10497;SDS011;5296;51.060;13.750;2023-06-22T14:21:13;8.20;;;7.50;;
10497;SDS011;5296;51.060;13.750;2023-06-22T14:26:15;7.97;;;7.35;;
10497;SDS011;5296;51.060;13.750;2023-06-22T14:31:20;7.85;;;7.15;;
10497;SDS011;5296;51.060;13.750;2023-06-22T14:36:21;8.23;;;6.82;;
10497;SDS011;5296;51.060;13.750;2023-06-22T14:41:23;7.65;;;7.00;;
10497;SDS011;5296;51.060;13.750;2023-06-22T14:46:25;7.25;;;6.63;;
10497;SDS011;5296;51.060;13.750;2023-06-22T14:51:27;7.95;;;7.25;;
10497;SDS011;5296;51.060;13.750;2023-06-22T14:56:28;8.80;;;7.32;;
10497;SDS011;5296;51.060;13.750;2023-06-22T15:01:33;7.95;;;7.25;;
10497;SDS011;5296;51.060;13.750;2023-06-22T15:06:34;7.72;;;6.97;;
10497;SDS011;5296;51.060;13.750;2023-06-22T15:11:36;8.13;;;7.43;;
10497;SDS011;5296;51.060;13.750;2023-06-22T15:16:38;10.93;;;7.93;;
10497;SDS011;5296;51.060;13.750;2023-06-22T15:21:39;8.30;;;7.53;;
10497;SDS011;5296;51.060;13.750;2023-06-22T15:26:41;8.57;;;7.00;;
10497;SDS011;5296;51.060;13.750;2023-06-22T15:31:43;8.68;;;7.90;;
10497;SDS011;5296;51.060;13.750;2023-06-22T15:36:45;9.68;;;7.68;;
10497;SDS011;5296;51.060;13.750;2023-06-22T15:41:46;7.82;;;6.78;;
10497;SDS011;5296;51.060;13.750;2023-06-22T15:46:48;8.35;;;7.70;;
10497;SDS011;5296;51.060;13.750;2023-06-22T15:51:50;8.35;;;7.55;;
10497;SDS011;5296;51.060;13.750;2023-06-22T15:56:52;7.95;;;7.03;;
10497;SDS011;5296;51.060;13.750;2023-06-22T16:01:53;8.82;;;7.55;;
10497;SDS011;5296;51.060;13.750;2023-06-22T16:06:56;9.20;;;7.75;;
10497;SDS011;5296;51.060;13.750;2023-06-22T16:11:58;8.20;;;7.40;;
10497;SDS011;5296;51.060;13.750;2023-06-22T16:17:00;11.88;;;8.02;;
10497;SDS011;5296;51.060;13.750;2023-06-22T16:22:05;8.27;;;7.50;;
10497;SDS011;5296;51.060;13.750;2023-06-22T16:27:07;10.65;;;7.82;;
10497;SDS011;5296;51.060;13.750;2023-06-22T16:32:08;8.68;;;7.82;;
10497;SDS011;5296;51.060;13.750;2023-06-22T16:37:10;8.75;;;7.80;;
10497;SDS011;5296;51.060;13.750;2023-06-22T16:42:12;9.48;;;8.57;;
10497;SDS011;5296;51.060;13.750;2023-06-22T16:47:14;9.25;;;8.27;;
10497;SDS011;5296;51.060;13.750;2023-06-22T16:52:16;9.38;;;8.57;;
10497;SDS011;5296;51.060;13.750;2023-06-22T16:57:17;9.23;;;8.43;;
10497;SDS011;5296;51.060;13.750;2023-06-22T17:02:19;9.57;;;8.70;;
10497;SDS011;5296;51.060;13.750;2023-06-22T17:07:25;9.50;;;8.60;;
10497;SDS011;5296;51.060;13.750;2023-06-22T17:12:28;9.27;;;8.48;;
10497;SDS011;5296;51.060;13.750;2023-06-22T17:17:31;9.07;;;8.27;;
10497;SDS011;5296;51.060;13.750;2023-06-22T17:22:33;11.00;;;8.88;;
10497;SDS011;5296;51.060;13.750;2023-06-22T17:27:39;9.25;;;8.35;;
10497;SDS011;5296;51.060;13.750;2023-06-22T17:32:43;9.18;;;8.18;;
10497;SDS011;5296;51.060;13.750;2023-06-22T17:37:51;9.35;;;8.43;;
10497;SDS011;5296;51.060;13.750;2023-06-22T17:43:03;8.85;;;7.97;;
10497;SDS011;5296;51.060;13.750;2023-06-22T17:48:08;10.68;;;8.43;;
10497;SDS011;5296;51.060;13.750;2023-06-22T17:53:11;9.02;;;8.13;;
10497;SDS011;5296;51.060;13.750;2023-06-22T17:58:14;9.57;;;8.68;;
10497;SDS011;5296;51.060;13.750;2023-06-22T18:03:17;11.40;;;8.10;;
10497;SDS011;5296;51.060;13.750;2023-06-22T18:08:25;10.07;;;8.25;;
10497;SDS011;5296;51.060;13.750;2023-06-22T18:13:27;9.13;;;8.25;;
10497;SDS011;5296;51.060;13.750;2023-06-22T18:18:30;11.05;;;8.73;;
10497;SDS011;5296;51.060;13.750;2023-06-22T18:23:33;9.85;;;8.90;;
10497;SDS011;5296;51.060;13.750;2023-06-22T18:28:37;10.55;;;8.68;;
10497;SDS011;5296;51.060;13.750;2023-06-22T18:33:40;9.73;;;8.82;;
10497;SDS011;5296;51.060;13.750;2023-06-22T18:38:42;10.50;;;9.27;;
10497;SDS011;5296;51.060;13.750;2023-06-22T18:43:45;12.20;;;9.57;;
10497;SDS011;5296;51.060;13.750;2023-06-22T18:48:47;10.35;;;9.45;;
10497;SDS011;5296;51.060;13.750;2023-06-22T18:54:01;10.38;;;9.23;;
10497;SDS011;5296;51.060;13.750;2023-06-22T18:59:03;10.13;;;9.05;;
10497;SDS011;5296;51.060;13.750;2023-06-22T19:04:16;9.98;;;9.15;;
10497;SDS011;5296;51.060;13.750;2023-06-22T19:09:18;10.55;;;9.48;;
10497;SDS011;5296;51.060;13.750;2023-06-22T19:14:21;11.75;;;9.82;;
10497;SDS011;5296;51.060;13.750;2023-06-22T19:19:23;10.63;;;9.60;;
10497;SDS011;5296;51.060;13.750;2023-06-22T19:24:31;10.00;;;9.10;;
10497;SDS011;5296;51.060;13.750;2023-06-22T19:29:33;10.77;;;9.77;;
10497;SDS011;5296;51.060;13.750;2023-06-22T19:34:35;11.63;;;9.48;;
10497;SDS011;5296;51.060;13.750;2023-06-22T19:39:38;10.43;;;9.52;;
10497;SDS011;5296;51.060;13.750;2023-06-22T19:44:39;10.82;;;9.65;;
10497;SDS011;5296;51.060;13.750;2023-06-22T19:49:41;12.07;;;9.70;;
10497;SDS011;5296;51.060;13.750;2023-06-22T19:54:43;10.20;;;9.15;;
10497;SDS011;5296;51.060;13.750;2023-06-22T19:59:45;10.60;;;9.50;;
10497;SDS011;5296;51.060;13.750;2023-06-22T20:04:50;10.82;;;9.70;;
10497;SDS011;5296;51.060;13.750;2023-06-22T20:10:11;11.48;;;9.27;;
10497;SDS011;5296;51.060;13.750;2023-06-22T20:20:21;10.57;;;9.63;;
10497;SDS011;5296;51.060;13.750;2023-06-22T20:25:24;10.00;;;9.00;;
10497;SDS011;5296;51.060;13.750;2023-06-22T20:30:26;9.60;;;8.80;;
10497;SDS011;5296;51.060;13.750;2023-06-22T20:35:28;10.40;;;9.32;;
10497;SDS011;5296;51.060;13.750;2023-06-22T20:40:29;9.15;;;8.35;;
10497;SDS011;5296;51.060;13.750;2023-06-22T20:45:32;9.98;;;9.07;;
10497;SDS011;5296;51.060;13.750;2023-06-22T20:50:37;10.45;;;9.48;;
10497;SDS011;5296;51.060;13.750;2023-06-22T20:55:39;10.10;;;9.23;;
10497;SDS011;5296;51.060;13.750;2023-06-22T21:00:41;10.70;;;9.65;;
10497;SDS011;5296;51.060;13.750;2023-06-22T21:05:43;9.88;;;8.88;;
10497;SDS011;5296;51.060;13.750;2023-06-22T21:10:45;10.20;;;9.25;;
10497;SDS011;5296;51.060;13.750;2023-06-22T21:15:47;10.32;;;9.40;;
10497;SDS011;5296;51.060;13.750;2023-06-22T21:20:48;10.68;;;9.32;;
10497;SDS011;5296;51.060;13.750;2023-06-22T21:25:50;10.20;;;9.30;;
10497;SDS011;5296;51.060;13.750;2023-06-22T21:30:52;10.48;;;9.48;;
10497;SDS011;5296;51.060;13.750;2023-06-22T21:35:54;9.80;;;9.00;;
10497;SDS011;5296;51.060;13.750;2023-06-22T21:40:56;11.15;;;10.05;;
10497;SDS011;5296;51.060;13.750;2023-06-22T21:45:57;11.23;;;9.98;;
10497;SDS011;5296;51.060;13.750;2023-06-22T21:50:59;11.95;;;10.77;;
10497;SDS011;5296;51.060;13.750;2023-06-22T21:56:01;11.30;;;10.40;;
10497;SDS011;5296;51.060;13.750;2023-06-22T22:01:02;12.00;;;10.77;;
10497;SDS011;5296;51.060;13.750;2023-06-22T22:06:04;12.98;;;11.68;;
10497;SDS011;5296;51.060;13.750;2023-06-22T22:11:06;12.05;;;11.00;;
10497;SDS011;5296;51.060;13.750;2023-06-22T22:16:08;13.55;;;12.05;;
10497;SDS011;5296;51.060;13.750;2023-06-22T22:21:09;13.85;;;12.43;;
10497;SDS011;5296;51.060;13.750;2023-06-22T22:26:11;12.75;;;11.52;;
10497;SDS011;5296;51.060;13.750;2023-06-22T22:31:13;13.80;;;12.45;;
10497;SDS011;5296;51.060;13.750;2023-06-22T22:36:15;14.15;;;12.75;;
10497;SDS011;5296;51.060;13.750;2023-06-22T22:41:16;13.43;;;12.13;;
10497;SDS011;5296;51.060;13.750;2023-06-22T22:46:18;13.32;;;12.15;;
10497;SDS011;5296;51.060;13.750;2023-06-22T22:51:20;14.07;;;12.40;;
10497;SDS011;5296;51.060;13.750;2023-06-22T22:56:22;14.98;;;13.43;;
10497;SDS011;5296;51.060;13.750;2023-06-22T23:01:25;12.43;;;11.23;;
10497;SDS011;5296;51.060;13.750;2023-06-22T23:06:27;9.15;;;7.90;;
10497;SDS011;5296;51.060;13.750;2023-06-22T23:11:29;4.78;;;4.18;;
10497;SDS011;5296;51.060;13.750;2023-06-22T23:16:30;6.10;;;5.53;;
10497;SDS011;5296;51.060;13.750;2023-06-22T23:21:32;7.97;;;3.35;;
10497;SDS011;5296;51.060;13.750;2023-06-22T23:26:34;5.55;;;2.60;;
10497;SDS011;5296;51.060;13.750;2023-06-22T23:31:35;5.35;;;2.30;;
10497;SDS011;5296;51.060;13.750;2023-06-22T23:36:37;4.18;;;2.10;;
10497;SDS011;5296;51.060;13.750;2023-06-22T23:41:39;7.53;;;2.33;;
10497;SDS011;5296;51.060;13.750;2023-06-22T23:46:41;4.00;;;1.30;;
10497;SDS011;5296;51.060;13.750;2023-06-22T23:51:43;2.95;;;1.20;;
10497;SDS011;5296;51.060;13.750;2023-06-22T23:56:45;1.65;;;1.10;;
